sensor_id;sensor_type;location;lat;lon;timestamp;P1;durP1;ratioP1;P2;durP2;ratioP2
56391;SDS011;42289;53.582;9.714;2022-12-18T00:01:21;25.15;;;11.27;;
56391;SDS011;42289;53.582;9.714;2022-12-18T00:03:49;25.85;;;11.30;;
56391;SDS011;42289;53.582;9.714;2022-12-18T00:06:16;24.50;;;10.95;;
56391;SDS011;42289;53.582;9.714;2022-12-18T00:08:45;24.63;;;10.55;;
56391;SDS011;42289;53.582;9.714;2022-12-18T00:11:12;23.08;;;10.52;;
56391;SDS011;42289;53.582;9.714;2022-12-18T00:13:42;22.65;;;10.90;;
56391;SDS011;42289;53.582;9.714;2022-12-18T00:16:09;21.45;;;9.82;;
56391;SDS011;42289;53.582;9.714;2022-12-18T00:18:37;25.67;;;10.80;;
56391;SDS011;42289;53.582;9.714;2022-12-18T00:21:04;24.70;;;10.77;;
56391;SDS011;42289;53.582;9.714;2022-12-18T00:23:32;23.23;;;10.88;;
56391;SDS011;42289;53.582;9.714;2022-12-18T00:26:00;22.55;;;10.48;;
56391;SDS011;42289;53.582;9.714;2022-12-18T00:28:27;26.25;;;10.48;;
56391;SDS011;42289;53.582;9.714;2022-12-18T00:31:00;23.27;;;10.65;;
56391;SDS011;42289;53.582;9.714;2022-12-18T00:33:27;21.43;;;10.43;;
56391;SDS011;42289;53.582;9.714;2022-12-18T00:35:53;26.90;;;11.25;;
56391;SDS011;42289;53.582;9.714;2022-12-18T00:38:20;22.45;;;10.25;;
56391;SDS011;42289;53.582;9.714;2022-12-18T00:40:46;25.30;;;10.55;;
56391;SDS011;42289;53.582;9.714;2022-12-18T00:43:13;21.40;;;10.45;;
56391;SDS011;42289;53.582;9.714;2022-12-18T00:45:38;25.20;;;10.60;;
56391;SDS011;42289;53.582;9.714;2022-12-18T00:48:07;24.45;;;10.90;;
56391;SDS011;42289;53.582;9.714;2022-12-18T00:50:34;24.17;;;10.07;;
56391;SDS011;42289;53.582;9.714;2022-12-18T00:53:00;22.50;;;9.98;;
56391;SDS011;42289;53.582;9.714;2022-12-18T00:55:27;19.98;;;10.18;;
56391;SDS011;42289;53.582;9.714;2022-12-18T00:57:53;24.75;;;10.93;;
56391;SDS011;42289;53.582;9.714;2022-12-18T01:00:20;20.13;;;10.57;;
56391;SDS011;42289;53.582;9.714;2022-12-18T01:02:47;24.10;;;10.18;;
56391;SDS011;42289;53.582;9.714;2022-12-18T01:05:14;22.70;;;10.20;;
56391;SDS011;42289;53.582;9.714;2022-12-18T01:07:41;21.38;;;11.02;;
56391;SDS011;42289;53.582;9.714;2022-12-18T01:10:09;20.83;;;10.23;;
56391;SDS011;42289;53.582;9.714;2022-12-18T01:12:38;23.38;;;10.35;;
56391;SDS011;42289;53.582;9.714;2022-12-18T01:15:05;24.85;;;9.95;;
56391;SDS011;42289;53.582;9.714;2022-12-18T01:17:33;26.25;;;10.30;;
56391;SDS011;42289;53.582;9.714;2022-12-18T01:20:00;21.33;;;9.48;;
56391;SDS011;42289;53.582;9.714;2022-12-18T01:22:27;21.73;;;10.43;;
56391;SDS011;42289;53.582;9.714;2022-12-18T01:24:54;18.33;;;9.50;;
56391;SDS011;42289;53.582;9.714;2022-12-18T01:27:20;22.65;;;10.40;;
56391;SDS011;42289;53.582;9.714;2022-12-18T01:29:47;20.65;;;10.32;;
56391;SDS011;42289;53.582;9.714;2022-12-18T01:32:13;20.90;;;9.85;;
56391;SDS011;42289;53.582;9.714;2022-12-18T01:34:40;21.30;;;10.15;;
56391;SDS011;42289;53.582;9.714;2022-12-18T01:37:06;21.20;;;10.13;;
56391;SDS011;42289;53.582;9.714;2022-12-18T01:39:34;20.77;;;9.93;;
56391;SDS011;42289;53.582;9.714;2022-12-18T01:42:02;21.67;;;10.00;;
56391;SDS011;42289;53.582;9.714;2022-12-18T01:47:21;19.70;;;9.20;;
56391;SDS011;42289;53.582;9.714;2022-12-18T01:49:52;20.55;;;9.57;;
56391;SDS011;42289;53.582;9.714;2022-12-18T01:52:20;21.20;;;9.98;;
56391;SDS011;42289;53.582;9.714;2022-12-18T01:54:49;20.17;;;9.27;;
56391;SDS011;42289;53.582;9.714;2022-12-18T01:57:17;20.27;;;9.77;;
56391;SDS011;42289;53.582;9.714;2022-12-18T01:59:45;22.35;;;10.23;;
56391;SDS011;42289;53.582;9.714;2022-12-18T02:02:16;21.27;;;10.05;;
56391;SDS011;42289;53.582;9.714;2022-12-18T02:04:43;21.45;;;9.57;;
56391;SDS011;42289;53.582;9.714;2022-12-18T02:07:10;22.30;;;9.23;;
56391;SDS011;42289;53.582;9.714;2022-12-18T02:09:46;20.88;;;9.82;;
56391;SDS011;42289;53.582;9.714;2022-12-18T02:12:18;19.83;;;9.30;;
56391;SDS011;42289;53.582;9.714;2022-12-18T02:14:49;21.70;;;9.15;;
56391;SDS011;42289;53.582;9.714;2022-12-18T02:17:22;24.23;;;10.32;;
56391;SDS011;42289;53.582;9.714;2022-12-18T02:19:57;23.02;;;9.90;;
56391;SDS011;42289;53.582;9.714;2022-12-18T02:22:35;24.30;;;10.38;;
56391;SDS011;42289;53.582;9.714;2022-12-18T02:25:19;21.10;;;9.93;;
56391;SDS011;42289;53.582;9.714;2022-12-18T02:27:58;22.10;;;10.52;;
56391;SDS011;42289;53.582;9.714;2022-12-18T02:30:28;24.48;;;9.93;;
56391;SDS011;42289;53.582;9.714;2022-12-18T02:32:57;20.92;;;9.50;;
56391;SDS011;42289;53.582;9.714;2022-12-18T02:35:27;23.33;;;9.63;;
56391;SDS011;42289;53.582;9.714;2022-12-18T02:37:56;20.13;;;9.07;;
56391;SDS011;42289;53.582;9.714;2022-12-18T02:40:24;22.67;;;9.82;;
56391;SDS011;42289;53.582;9.714;2022-12-18T02:42:53;22.63;;;10.30;;
56391;SDS011;42289;53.582;9.714;2022-12-18T02:45:21;21.02;;;9.80;;
56391;SDS011;42289;53.582;9.714;2022-12-18T02:47:48;22.75;;;10.60;;
56391;SDS011;42289;53.582;9.714;2022-12-18T02:50:17;21.45;;;9.57;;
56391;SDS011;42289;53.582;9.714;2022-12-18T02:52:50;23.63;;;9.50;;
56391;SDS011;42289;53.582;9.714;2022-12-18T02:55:28;21.05;;;10.13;;
56391;SDS011;42289;53.582;9.714;2022-12-18T02:58:08;23.45;;;10.07;;
56391;SDS011;42289;53.582;9.714;2022-12-18T03:00:42;23.67;;;10.43;;
56391;SDS011;42289;53.582;9.714;2022-12-18T03:03:16;18.73;;;9.25;;
56391;SDS011;42289;53.582;9.714;2022-12-18T03:05:51;23.40;;;9.68;;
56391;SDS011;42289;53.582;9.714;2022-12-18T03:08:20;20.48;;;10.20;;
56391;SDS011;42289;53.582;9.714;2022-12-18T03:10:49;22.48;;;10.18;;
56391;SDS011;42289;53.582;9.714;2022-12-18T03:13:21;19.90;;;9.48;;
56391;SDS011;42289;53.582;9.714;2022-12-18T03:15:56;23.58;;;9.80;;
56391;SDS011;42289;53.582;9.714;2022-12-18T03:18:26;19.80;;;9.35;;
56391;SDS011;42289;53.582;9.714;2022-12-18T03:20:57;23.05;;;9.82;;
56391;SDS011;42289;53.582;9.714;2022-12-18T03:23:27;19.58;;;9.80;;
56391;SDS011;42289;53.582;9.714;2022-12-18T03:26:00;24.30;;;10.37;;
56391;SDS011;42289;53.582;9.714;2022-12-18T03:28:33;22.95;;;9.95;;
56391;SDS011;42289;53.582;9.714;2022-12-18T03:31:05;19.05;;;9.00;;
56391;SDS011;42289;53.582;9.714;2022-12-18T03:33:37;19.02;;;9.07;;
56391;SDS011;42289;53.582;9.714;2022-12-18T03:36:07;21.60;;;10.25;;
56391;SDS011;42289;53.582;9.714;2022-12-18T03:38:34;19.23;;;8.80;;
56391;SDS011;42289;53.582;9.714;2022-12-18T03:41:02;17.70;;;8.90;;
56391;SDS011;42289;53.582;9.714;2022-12-18T03:46:08;20.17;;;8.93;;
56391;SDS011;42289;53.582;9.714;2022-12-18T03:48:41;18.33;;;8.85;;
56391;SDS011;42289;53.582;9.714;2022-12-18T03:51:14;18.30;;;8.30;;
56391;SDS011;42289;53.582;9.714;2022-12-18T03:53:46;20.48;;;9.27;;
56391;SDS011;42289;53.582;9.714;2022-12-18T03:56:16;20.65;;;9.15;;
56391;SDS011;42289;53.582;9.714;2022-12-18T03:58:44;18.67;;;8.77;;
56391;SDS011;42289;53.582;9.714;2022-12-18T04:01:14;19.08;;;8.77;;
56391;SDS011;42289;53.582;9.714;2022-12-18T04:03:43;19.92;;;8.70;;
56391;SDS011;42289;53.582;9.714;2022-12-18T04:06:12;19.42;;;9.35;;
56391;SDS011;42289;53.582;9.714;2022-12-18T04:08:40;20.17;;;9.15;;
56391;SDS011;42289;53.582;9.714;2022-12-18T04:11:07;20.00;;;8.63;;
56391;SDS011;42289;53.582;9.714;2022-12-18T04:13:35;19.13;;;9.52;;
56391;SDS011;42289;53.582;9.714;2022-12-18T04:16:03;18.60;;;10.15;;
56391;SDS011;42289;53.582;9.714;2022-12-18T04:18:42;23.35;;;10.43;;
56391;SDS011;42289;53.582;9.714;2022-12-18T04:21:09;24.30;;;11.90;;
56391;SDS011;42289;53.582;9.714;2022-12-18T04:23:36;22.10;;;11.15;;
56391;SDS011;42289;53.582;9.714;2022-12-18T04:26:02;21.55;;;10.80;;
56391;SDS011;42289;53.582;9.714;2022-12-18T04:28:28;24.75;;;11.82;;
56391;SDS011;42289;53.582;9.714;2022-12-18T04:30:55;22.48;;;10.30;;
56391;SDS011;42289;53.582;9.714;2022-12-18T04:33:23;18.52;;;10.07;;
56391;SDS011;42289;53.582;9.714;2022-12-18T04:35:51;18.40;;;9.77;;
56391;SDS011;42289;53.582;9.714;2022-12-18T04:38:17;17.50;;;8.43;;
56391;SDS011;42289;53.582;9.714;2022-12-18T04:40:44;18.52;;;8.32;;
56391;SDS011;42289;53.582;9.714;2022-12-18T04:43:10;17.00;;;8.60;;
56391;SDS011;42289;53.582;9.714;2022-12-18T04:45:36;22.75;;;9.02;;
56391;SDS011;42289;53.582;9.714;2022-12-18T04:48:03;19.63;;;9.00;;
56391;SDS011;42289;53.582;9.714;2022-12-18T04:50:30;19.58;;;8.57;;
56391;SDS011;42289;53.582;9.714;2022-12-18T04:52:58;18.40;;;8.27;;
56391;SDS011;42289;53.582;9.714;2022-12-18T04:55:25;16.65;;;8.30;;
56391;SDS011;42289;53.582;9.714;2022-12-18T04:57:51;18.10;;;8.35;;
56391;SDS011;42289;53.582;9.714;2022-12-18T05:00:18;17.58;;;7.65;;
56391;SDS011;42289;53.582;9.714;2022-12-18T05:02:45;19.20;;;8.30;;
56391;SDS011;42289;53.582;9.714;2022-12-18T05:05:11;20.65;;;8.20;;
56391;SDS011;42289;53.582;9.714;2022-12-18T05:07:38;20.90;;;8.48;;
56391;SDS011;42289;53.582;9.714;2022-12-18T05:10:09;17.17;;;8.05;;
56391;SDS011;42289;53.582;9.714;2022-12-18T05:12:35;18.33;;;7.85;;
56391;SDS011;42289;53.582;9.714;2022-12-18T05:15:22;20.23;;;8.98;;
56391;SDS011;42289;53.582;9.714;2022-12-18T05:17:49;16.85;;;8.45;;
56391;SDS011;42289;53.582;9.714;2022-12-18T05:20:16;17.55;;;7.30;;
56391;SDS011;42289;53.582;9.714;2022-12-18T05:22:43;14.70;;;7.53;;
56391;SDS011;42289;53.582;9.714;2022-12-18T05:25:11;17.95;;;7.47;;
56391;SDS011;42289;53.582;9.714;2022-12-18T05:27:37;15.43;;;7.32;;
56391;SDS011;42289;53.582;9.714;2022-12-18T05:30:04;15.18;;;7.53;;
56391;SDS011;42289;53.582;9.714;2022-12-18T05:32:31;17.85;;;7.95;;
56391;SDS011;42289;53.582;9.714;2022-12-18T05:34:57;15.38;;;7.82;;
56391;SDS011;42289;53.582;9.714;2022-12-18T05:37:24;17.05;;;7.60;;
56391;SDS011;42289;53.582;9.714;2022-12-18T05:39:50;15.38;;;7.68;;
56391;SDS011;42289;53.582;9.714;2022-12-18T05:42:18;16.95;;;7.85;;
56391;SDS011;42289;53.582;9.714;2022-12-18T05:44:44;16.95;;;7.40;;
56391;SDS011;42289;53.582;9.714;2022-12-18T05:47:10;14.35;;;6.82;;
56391;SDS011;42289;53.582;9.714;2022-12-18T05:49:37;15.65;;;6.68;;
56391;SDS011;42289;53.582;9.714;2022-12-18T05:52:03;16.75;;;7.50;;
56391;SDS011;42289;53.582;9.714;2022-12-18T05:54:30;15.27;;;7.45;;
56391;SDS011;42289;53.582;9.714;2022-12-18T05:56:57;15.82;;;7.25;;
56391;SDS011;42289;53.582;9.714;2022-12-18T05:59:24;15.85;;;7.13;;
56391;SDS011;42289;53.582;9.714;2022-12-18T06:01:51;14.50;;;6.90;;
56391;SDS011;42289;53.582;9.714;2022-12-18T06:04:17;15.70;;;7.63;;
56391;SDS011;42289;53.582;9.714;2022-12-18T06:06:44;15.43;;;6.93;;
56391;SDS011;42289;53.582;9.714;2022-12-18T06:09:10;17.90;;;7.75;;
56391;SDS011;42289;53.582;9.714;2022-12-18T06:11:37;18.42;;;7.50;;
56391;SDS011;42289;53.582;9.714;2022-12-18T06:14:04;18.58;;;7.25;;
56391;SDS011;42289;53.582;9.714;2022-12-18T06:16:33;13.95;;;7.03;;
56391;SDS011;42289;53.582;9.714;2022-12-18T06:19:00;17.77;;;7.30;;
56391;SDS011;42289;53.582;9.714;2022-12-18T06:21:28;17.67;;;7.68;;
56391;SDS011;42289;53.582;9.714;2022-12-18T06:23:55;18.10;;;7.60;;
56391;SDS011;42289;53.582;9.714;2022-12-18T06:26:22;17.20;;;7.13;;
56391;SDS011;42289;53.582;9.714;2022-12-18T06:28:48;17.40;;;7.90;;
56391;SDS011;42289;53.582;9.714;2022-12-18T06:31:15;17.58;;;7.65;;
56391;SDS011;42289;53.582;9.714;2022-12-18T06:33:43;16.33;;;7.90;;
56391;SDS011;42289;53.582;9.714;2022-12-18T06:36:10;15.43;;;7.00;;
56391;SDS011;42289;53.582;9.714;2022-12-18T06:38:38;15.55;;;7.38;;
56391;SDS011;42289;53.582;9.714;2022-12-18T06:41:06;18.00;;;7.22;;
56391;SDS011;42289;53.582;9.714;2022-12-18T06:43:33;15.02;;;7.15;;
56391;SDS011;42289;53.582;9.714;2022-12-18T06:46:00;17.23;;;7.57;;
56391;SDS011;42289;53.582;9.714;2022-12-18T06:48:26;15.95;;;7.75;;
56391;SDS011;42289;53.582;9.714;2022-12-18T06:50:54;18.50;;;7.38;;
56391;SDS011;42289;53.582;9.714;2022-12-18T06:53:21;16.83;;;7.30;;
56391;SDS011;42289;53.582;9.714;2022-12-18T06:55:47;15.13;;;7.30;;
56391;SDS011;42289;53.582;9.714;2022-12-18T06:58:14;19.05;;;8.02;;
56391;SDS011;42289;53.582;9.714;2022-12-18T07:00:40;17.95;;;7.53;;
56391;SDS011;42289;53.582;9.714;2022-12-18T07:03:07;18.85;;;6.95;;
56391;SDS011;42289;53.582;9.714;2022-12-18T07:05:33;17.17;;;7.13;;
56391;SDS011;42289;53.582;9.714;2022-12-18T07:08:01;14.15;;;6.85;;
56391;SDS011;42289;53.582;9.714;2022-12-18T07:10:28;12.90;;;7.05;;
56391;SDS011;42289;53.582;9.714;2022-12-18T07:12:54;13.68;;;6.70;;
56391;SDS011;42289;53.582;9.714;2022-12-18T07:15:20;14.77;;;6.57;;
56391;SDS011;42289;53.582;9.714;2022-12-18T07:17:47;16.88;;;7.00;;
56391;SDS011;42289;53.582;9.714;2022-12-18T07:20:13;16.67;;;6.78;;
56391;SDS011;42289;53.582;9.714;2022-12-18T07:22:40;14.35;;;6.35;;
56391;SDS011;42289;53.582;9.714;2022-12-18T07:25:08;13.48;;;6.50;;
56391;SDS011;42289;53.582;9.714;2022-12-18T07:27:35;18.08;;;6.53;;
56391;SDS011;42289;53.582;9.714;2022-12-18T07:30:01;16.08;;;7.05;;
56391;SDS011;42289;53.582;9.714;2022-12-18T07:32:28;15.13;;;6.13;;
56391;SDS011;42289;53.582;9.714;2022-12-18T07:34:56;17.00;;;6.85;;
56391;SDS011;42289;53.582;9.714;2022-12-18T07:37:22;13.93;;;6.28;;
56391;SDS011;42289;53.582;9.714;2022-12-18T07:39:48;13.20;;;6.18;;
56391;SDS011;42289;53.582;9.714;2022-12-18T07:42:16;14.85;;;6.70;;
56391;SDS011;42289;53.582;9.714;2022-12-18T07:44:57;14.55;;;6.28;;
56391;SDS011;42289;53.582;9.714;2022-12-18T07:47:24;13.68;;;6.65;;
56391;SDS011;42289;53.582;9.714;2022-12-18T07:49:51;16.20;;;6.75;;
56391;SDS011;42289;53.582;9.714;2022-12-18T07:52:18;15.98;;;6.50;;
56391;SDS011;42289;53.582;9.714;2022-12-18T07:54:44;16.63;;;6.07;;
56391;SDS011;42289;53.582;9.714;2022-12-18T07:57:18;18.25;;;6.63;;
56391;SDS011;42289;53.582;9.714;2022-12-18T07:59:44;14.35;;;6.28;;
56391;SDS011;42289;53.582;9.714;2022-12-18T08:02:11;13.95;;;6.63;;
56391;SDS011;42289;53.582;9.714;2022-12-18T08:04:37;14.20;;;6.20;;
56391;SDS011;42289;53.582;9.714;2022-12-18T08:07:03;14.45;;;6.53;;
56391;SDS011;42289;53.582;9.714;2022-12-18T08:09:30;16.83;;;6.68;;
56391;SDS011;42289;53.582;9.714;2022-12-18T08:11:56;14.25;;;6.40;;
56391;SDS011;42289;53.582;9.714;2022-12-18T08:14:24;15.90;;;6.30;;
56391;SDS011;42289;53.582;9.714;2022-12-18T08:16:50;13.88;;;6.70;;
56391;SDS011;42289;53.582;9.714;2022-12-18T08:19:17;17.45;;;7.55;;
56391;SDS011;42289;53.582;9.714;2022-12-18T08:21:43;14.75;;;6.97;;
56391;SDS011;42289;53.582;9.714;2022-12-18T08:24:09;15.43;;;7.07;;
56391;SDS011;42289;53.582;9.714;2022-12-18T08:26:36;12.50;;;6.28;;
56391;SDS011;42289;53.582;9.714;2022-12-18T08:29:03;12.45;;;6.18;;
56391;SDS011;42289;53.582;9.714;2022-12-18T08:31:30;15.95;;;6.20;;
56391;SDS011;42289;53.582;9.714;2022-12-18T08:33:57;13.80;;;6.68;;
56391;SDS011;42289;53.582;9.714;2022-12-18T08:36:24;13.43;;;6.45;;
56391;SDS011;42289;53.582;9.714;2022-12-18T08:38:51;16.48;;;6.97;;
56391;SDS011;42289;53.582;9.714;2022-12-18T08:41:18;15.18;;;6.82;;
56391;SDS011;42289;53.582;9.714;2022-12-18T08:43:45;16.27;;;6.40;;
56391;SDS011;42289;53.582;9.714;2022-12-18T08:46:32;15.45;;;6.78;;
56391;SDS011;42289;53.582;9.714;2022-12-18T08:49:01;13.00;;;6.38;;
56391;SDS011;42289;53.582;9.714;2022-12-18T08:51:28;13.43;;;6.25;;
56391;SDS011;42289;53.582;9.714;2022-12-18T08:53:54;12.23;;;6.30;;
56391;SDS011;42289;53.582;9.714;2022-12-18T08:56:21;12.40;;;6.38;;
56391;SDS011;42289;53.582;9.714;2022-12-18T08:58:50;15.48;;;6.25;;
56391;SDS011;42289;53.582;9.714;2022-12-18T09:01:17;14.52;;;6.38;;
56391;SDS011;42289;53.582;9.714;2022-12-18T09:03:48;15.90;;;6.38;;
56391;SDS011;42289;53.582;9.714;2022-12-18T09:06:15;11.85;;;6.45;;
56391;SDS011;42289;53.582;9.714;2022-12-18T09:08:42;13.23;;;5.75;;
56391;SDS011;42289;53.582;9.714;2022-12-18T09:11:11;13.90;;;6.18;;
56391;SDS011;42289;53.582;9.714;2022-12-18T09:13:40;11.05;;;5.50;;
56391;SDS011;42289;53.582;9.714;2022-12-18T09:16:07;12.70;;;6.10;;
56391;SDS011;42289;53.582;9.714;2022-12-18T09:18:33;14.00;;;5.88;;
56391;SDS011;42289;53.582;9.714;2022-12-18T09:21:06;15.60;;;5.70;;
56391;SDS011;42289;53.582;9.714;2022-12-18T09:26:00;11.25;;;5.65;;
56391;SDS011;42289;53.582;9.714;2022-12-18T09:28:26;13.32;;;5.90;;
56391;SDS011;42289;53.582;9.714;2022-12-18T09:30:53;12.93;;;6.53;;
56391;SDS011;42289;53.582;9.714;2022-12-18T09:33:19;13.60;;;6.75;;
56391;SDS011;42289;53.582;9.714;2022-12-18T09:35:48;12.98;;;6.00;;
56391;SDS011;42289;53.582;9.714;2022-12-18T09:38:18;11.25;;;6.07;;
56391;SDS011;42289;53.582;9.714;2022-12-18T09:40:46;20.35;;;7.55;;
56391;SDS011;42289;53.582;9.714;2022-12-18T09:43:16;12.30;;;6.28;;
56391;SDS011;42289;53.582;9.714;2022-12-18T09:45:46;11.65;;;6.00;;
56391;SDS011;42289;53.582;9.714;2022-12-18T09:48:19;12.57;;;6.13;;
56391;SDS011;42289;53.582;9.714;2022-12-18T09:50:48;12.57;;;5.68;;
56391;SDS011;42289;53.582;9.714;2022-12-18T09:53:19;13.45;;;6.30;;
56391;SDS011;42289;53.582;9.714;2022-12-18T09:55:50;11.80;;;5.43;;
56391;SDS011;42289;53.582;9.714;2022-12-18T09:58:19;15.02;;;6.47;;
56391;SDS011;42289;53.582;9.714;2022-12-18T10:00:51;15.10;;;6.88;;
56391;SDS011;42289;53.582;9.714;2022-12-18T10:03:17;10.88;;;5.43;;
56391;SDS011;42289;53.582;9.714;2022-12-18T10:05:45;12.00;;;5.63;;
56391;SDS011;42289;53.582;9.714;2022-12-18T10:08:27;14.40;;;6.10;;
56391;SDS011;42289;53.582;9.714;2022-12-18T10:11:01;11.80;;;5.93;;
56391;SDS011;42289;53.582;9.714;2022-12-18T10:13:38;13.20;;;6.00;;
56391;SDS011;42289;53.582;9.714;2022-12-18T10:16:13;12.23;;;5.78;;
56391;SDS011;42289;53.582;9.714;2022-12-18T10:18:49;15.63;;;6.20;;
56391;SDS011;42289;53.582;9.714;2022-12-18T10:21:28;12.95;;;5.47;;
56391;SDS011;42289;53.582;9.714;2022-12-18T10:24:00;12.32;;;5.95;;
56391;SDS011;42289;53.582;9.714;2022-12-18T10:26:39;11.48;;;5.90;;
56391;SDS011;42289;53.582;9.714;2022-12-18T10:29:08;13.23;;;6.25;;
56391;SDS011;42289;53.582;9.714;2022-12-18T10:31:37;14.05;;;6.85;;
56391;SDS011;42289;53.582;9.714;2022-12-18T10:34:04;16.60;;;7.85;;
56391;SDS011;42289;53.582;9.714;2022-12-18T10:36:30;14.57;;;8.65;;
56391;SDS011;42289;53.582;9.714;2022-12-18T10:39:00;19.48;;;10.07;;
56391;SDS011;42289;53.582;9.714;2022-12-18T10:41:40;24.27;;;12.13;;
56391;SDS011;42289;53.582;9.714;2022-12-18T10:44:11;34.22;;;16.27;;
56391;SDS011;42289;53.582;9.714;2022-12-18T10:46:42;18.58;;;9.82;;
56391;SDS011;42289;53.582;9.714;2022-12-18T10:49:18;18.70;;;9.95;;
56391;SDS011;42289;53.582;9.714;2022-12-18T10:51:47;10.95;;;6.07;;
56391;SDS011;42289;53.582;9.714;2022-12-18T10:54:15;14.40;;;7.55;;
56391;SDS011;42289;53.582;9.714;2022-12-18T10:56:45;14.20;;;7.03;;
56391;SDS011;42289;53.582;9.714;2022-12-18T10:59:12;12.60;;;5.90;;
56391;SDS011;42289;53.582;9.714;2022-12-18T11:01:47;11.68;;;5.38;;
56391;SDS011;42289;53.582;9.714;2022-12-18T11:04:17;12.95;;;5.45;;
56391;SDS011;42289;53.582;9.714;2022-12-18T11:06:56;11.93;;;5.70;;
56391;SDS011;42289;53.582;9.714;2022-12-18T11:09:26;11.18;;;5.60;;
56391;SDS011;42289;53.582;9.714;2022-12-18T11:11:57;12.05;;;5.80;;
56391;SDS011;42289;53.582;9.714;2022-12-18T11:14:25;11.35;;;5.30;;
56391;SDS011;42289;53.582;9.714;2022-12-18T11:16:54;12.27;;;5.43;;
56391;SDS011;42289;53.582;9.714;2022-12-18T11:19:26;10.05;;;5.38;;
56391;SDS011;42289;53.582;9.714;2022-12-18T11:21:58;12.18;;;5.10;;
56391;SDS011;42289;53.582;9.714;2022-12-18T11:24:28;13.40;;;5.30;;
56391;SDS011;42289;53.582;9.714;2022-12-18T11:26:57;9.02;;;5.30;;
56391;SDS011;42289;53.582;9.714;2022-12-18T11:29:31;13.07;;;5.07;;
56391;SDS011;42289;53.582;9.714;2022-12-18T11:32:12;12.93;;;5.32;;
56391;SDS011;42289;53.582;9.714;2022-12-18T11:34:51;10.13;;;5.20;;
56391;SDS011;42289;53.582;9.714;2022-12-18T11:37:24;12.85;;;5.68;;
56391;SDS011;42289;53.582;9.714;2022-12-18T11:39:52;11.50;;;5.90;;
56391;SDS011;42289;53.582;9.714;2022-12-18T11:42:25;11.00;;;5.60;;
56391;SDS011;42289;53.582;9.714;2022-12-18T11:47:28;12.48;;;5.40;;
56391;SDS011;42289;53.582;9.714;2022-12-18T11:50:02;13.93;;;5.55;;
56391;SDS011;42289;53.582;9.714;2022-12-18T11:52:40;11.60;;;5.97;;
56391;SDS011;42289;53.582;9.714;2022-12-18T11:55:11;14.73;;;6.53;;
56391;SDS011;42289;53.582;9.714;2022-12-18T11:57:41;13.95;;;6.88;;
56391;SDS011;42289;53.582;9.714;2022-12-18T12:00:21;14.55;;;6.47;;
56391;SDS011;42289;53.582;9.714;2022-12-18T12:02:56;11.27;;;5.97;;
56391;SDS011;42289;53.582;9.714;2022-12-18T12:05:39;13.25;;;6.50;;
56391;SDS011;42289;53.582;9.714;2022-12-18T12:08:17;13.80;;;6.57;;
56391;SDS011;42289;53.582;9.714;2022-12-18T12:10:57;14.50;;;6.82;;
56391;SDS011;42289;53.582;9.714;2022-12-18T12:13:37;14.70;;;6.43;;
56391;SDS011;42289;53.582;9.714;2022-12-18T12:16:15;14.43;;;6.95;;
56391;SDS011;42289;53.582;9.714;2022-12-18T12:18:49;14.27;;;6.65;;
56391;SDS011;42289;53.582;9.714;2022-12-18T12:21:26;12.52;;;6.22;;
56391;SDS011;42289;53.582;9.714;2022-12-18T12:24:01;14.80;;;6.97;;
56391;SDS011;42289;53.582;9.714;2022-12-18T12:26:38;15.90;;;6.68;;
56391;SDS011;42289;53.582;9.714;2022-12-18T12:29:16;15.10;;;7.15;;
56391;SDS011;42289;53.582;9.714;2022-12-18T12:31:56;18.25;;;8.82;;
56391;SDS011;42289;53.582;9.714;2022-12-18T12:34:31;18.30;;;7.75;;
56391;SDS011;42289;53.582;9.714;2022-12-18T12:37:09;13.93;;;6.60;;
56391;SDS011;42289;53.582;9.714;2022-12-18T12:39:46;12.38;;;6.75;;
56391;SDS011;42289;53.582;9.714;2022-12-18T12:42:16;16.45;;;7.43;;
56391;SDS011;42289;53.582;9.714;2022-12-18T12:45:14;15.63;;;6.60;;
56391;SDS011;42289;53.582;9.714;2022-12-18T12:47:48;15.25;;;6.80;;
56391;SDS011;42289;53.582;9.714;2022-12-18T12:50:17;13.90;;;6.75;;
56391;SDS011;42289;53.582;9.714;2022-12-18T12:52:46;12.77;;;6.63;;
56391;SDS011;42289;53.582;9.714;2022-12-18T12:55:16;15.50;;;6.72;;
56391;SDS011;42289;53.582;9.714;2022-12-18T12:57:48;15.75;;;7.65;;
56391;SDS011;42289;53.582;9.714;2022-12-18T13:00:21;14.95;;;7.32;;
56391;SDS011;42289;53.582;9.714;2022-12-18T13:02:51;15.80;;;7.65;;
56391;SDS011;42289;53.582;9.714;2022-12-18T13:05:23;17.73;;;8.38;;
56391;SDS011;42289;53.582;9.714;2022-12-18T13:07:53;15.63;;;7.88;;
56391;SDS011;42289;53.582;9.714;2022-12-18T13:10:24;18.23;;;7.47;;
56391;SDS011;42289;53.582;9.714;2022-12-18T13:12:57;15.15;;;6.95;;
56391;SDS011;42289;53.582;9.714;2022-12-18T13:15:32;17.90;;;7.05;;
56391;SDS011;42289;53.582;9.714;2022-12-18T13:18:03;16.30;;;7.50;;
56391;SDS011;42289;53.582;9.714;2022-12-18T13:20:33;13.35;;;7.55;;
56391;SDS011;42289;53.582;9.714;2022-12-18T13:23:01;15.35;;;7.93;;
56391;SDS011;42289;53.582;9.714;2022-12-18T13:25:46;17.27;;;7.32;;
56391;SDS011;42289;53.582;9.714;2022-12-18T13:28:14;17.25;;;8.75;;
56391;SDS011;42289;53.582;9.714;2022-12-18T13:30:51;17.52;;;8.07;;
56391;SDS011;42289;53.582;9.714;2022-12-18T13:33:37;16.42;;;8.10;;
56391;SDS011;42289;53.582;9.714;2022-12-18T13:36:25;19.73;;;8.85;;
56391;SDS011;42289;53.582;9.714;2022-12-18T13:39:08;17.60;;;8.50;;
56391;SDS011;42289;53.582;9.714;2022-12-18T13:45:36;19.42;;;8.60;;
56391;SDS011;42289;53.582;9.714;2022-12-18T13:48:11;26.30;;;10.68;;
56391;SDS011;42289;53.582;9.714;2022-12-18T13:50:42;21.83;;;10.52;;
56391;SDS011;42289;53.582;9.714;2022-12-18T13:53:11;21.50;;;10.52;;
56391;SDS011;42289;53.582;9.714;2022-12-18T13:55:46;24.55;;;10.00;;
56391;SDS011;42289;53.582;9.714;2022-12-18T14:01:36;22.83;;;9.82;;
56391;SDS011;42289;53.582;9.714;2022-12-18T14:04:09;27.00;;;10.63;;
56391;SDS011;42289;53.582;9.714;2022-12-18T14:06:36;22.23;;;10.18;;
56391;SDS011;42289;53.582;9.714;2022-12-18T14:09:04;22.90;;;10.48;;
56391;SDS011;42289;53.582;9.714;2022-12-18T14:11:31;23.67;;;10.82;;
56391;SDS011;42289;53.582;9.714;2022-12-18T14:13:58;28.70;;;10.63;;
56391;SDS011;42289;53.582;9.714;2022-12-18T14:16:24;24.13;;;10.77;;
56391;SDS011;42289;53.582;9.714;2022-12-18T14:18:53;22.30;;;10.63;;
56391;SDS011;42289;53.582;9.714;2022-12-18T14:21:23;22.75;;;10.35;;
56391;SDS011;42289;53.582;9.714;2022-12-18T14:24:02;22.83;;;10.38;;
56391;SDS011;42289;53.582;9.714;2022-12-18T14:26:32;25.40;;;10.52;;
56391;SDS011;42289;53.582;9.714;2022-12-18T14:28:59;26.88;;;11.07;;
56391;SDS011;42289;53.582;9.714;2022-12-18T14:31:28;26.05;;;11.52;;
56391;SDS011;42289;53.582;9.714;2022-12-18T14:33:58;26.20;;;11.48;;
56391;SDS011;42289;53.582;9.714;2022-12-18T14:36:26;28.25;;;12.68;;
56391;SDS011;42289;53.582;9.714;2022-12-18T14:38:54;29.85;;;12.02;;
56391;SDS011;42289;53.582;9.714;2022-12-18T14:41:23;29.20;;;12.15;;
56391;SDS011;42289;53.582;9.714;2022-12-18T14:43:50;28.02;;;12.13;;
56391;SDS011;42289;53.582;9.714;2022-12-18T14:46:25;30.63;;;12.40;;
56391;SDS011;42289;53.582;9.714;2022-12-18T14:48:59;29.20;;;12.68;;
56391;SDS011;42289;53.582;9.714;2022-12-18T14:51:30;26.77;;;12.15;;
56391;SDS011;42289;53.582;9.714;2022-12-18T14:53:58;30.45;;;12.43;;
56391;SDS011;42289;53.582;9.714;2022-12-18T14:56:27;30.23;;;12.65;;
56391;SDS011;42289;53.582;9.714;2022-12-18T14:58:55;30.48;;;12.65;;
56391;SDS011;42289;53.582;9.714;2022-12-18T15:01:25;30.85;;;12.77;;
56391;SDS011;42289;53.582;9.714;2022-12-18T15:03:53;32.42;;;12.75;;